Westby, Wisconsin
Current Conditions -  °F | °C
As of 7:35 PM on Wednesday 22 Oct 2014 (Local Time) from KY51 Reporting Station
Clear Clear  
Wind Chill: 46°   Ceiling: Unl
Heat Index: 49°   Visibility: 10mi
Dew Point: 36°   Wind: 7mph
Humidity: 61%   Direction: 150°SSE
Pressure: 30.18"   Gusts: NA
Location:  43.66°N, 90.85°W
Report Text: KY51 230035Z AUTO 15006KT 10SM CLR 09/02 A3018 RMK AO1 T00940021
Loading
Personal Weather Stations






























Interactive Weather Map
Tropical Storm Tracking
New forecast layout! Learn more

10-Day Weather Forecast

Advertisements
Track Severe Weather on mobile